Time;durP1;ratioP1;P1;durP2;ratioP2;P2;SDS_P1;SDS_P2;PMS_P1;PMS_P2;Temp;Humidity;BMP_temperature;BMP_pressure;BME280_temperature;BME280_humidity;BME280_pressure;Samples;Min_cycle;Max_cycle;Signal;HPM_P1;HPM_P2
2022/11/29 00:01:10;;;;;;;;;;;;;;;22.13;49.82;101109.56;5074607;27;4239;-64
2022/11/29 00:03:36;;;;;;;;;;;;;;;22.11;50.00;101118.13;5087104;28;4079;-63
2022/11/29 00:06:13;;;;;;;;;;;;;;;22.11;50.00;101118.13;5084405;28;4054;-64
2022/11/29 00:08:40;;;;;;;;;;;;;;;22.11;49.66;101129.66;5087886;28;5485;-63
2022/11/29 00:11:07;;;;;;;;;;;;;;;22.10;49.56;101122.41;5084624;28;3933;-63
2022/11/29 00:13:33;;;;;;;;;;;;;;;22.12;49.66;101118.88;5086249;28;5119;-63
2022/11/29 00:16:01;;;;;;;;;;;;;;;22.12;50.01;101125.38;5093453;28;4003;-63
2022/11/29 00:18:27;;;;;;;;;;;;;;;22.12;49.88;101125.38;5073515;28;5535;-64
2022/11/29 00:20:54;;;;;;;;;;;;;;;22.13;49.93;101126.88;5083497;28;4157;-64
2022/11/29 00:23:20;;;;;;;;;;;;;;;22.14;49.89;101128.34;5082247;28;5277;-63
2022/11/29 00:25:46;;;;;;;;;;;;;;;22.16;49.92;101124.81;5089327;28;4032;-64
2022/11/29 00:28:13;;;;;;;;;;;;;;;22.18;50.06;101122.75;5097164;28;4293;-64
2022/11/29 00:30:39;;;;;;;;;;;;;;;22.22;50.10;101127.22;5091094;28;4151;-64
2022/11/29 00:33:05;;;;;;;;;;;;;;;22.17;49.88;101124.16;5088856;28;4118;-64
2022/11/29 00:35:32;;;;;;;;;;;;;;;22.14;49.81;101122.56;5089975;28;5153;-64
2022/11/29 00:37:58;;;;;;;;;;;;;;;22.15;50.16;101129.09;5090741;28;4307;-63
2022/11/29 00:40:24;;;;;;;;;;;;;;;22.13;49.83;101126.88;5094526;28;4178;-63
2022/11/29 00:42:51;;;;;;;;;;;;;;;22.15;49.85;101123.31;5097241;28;4216;-64
2022/11/29 00:45:17;;;;;;;;;;;;;;;22.11;50.04;101123.16;5083692;28;4181;-64
2022/11/29 00:47:43;;;;;;;;;;;;;;;22.12;50.10;101131.13;5094795;28;5246;-64
2022/11/29 00:50:10;;;;;;;;;;;;;;;22.13;49.99;101123.25;5079176;28;4098;-61
2022/11/29 00:52:36;;;;;;;;;;;;;;;22.11;50.02;101129.66;5096042;28;4169;-64
2022/11/29 00:55:02;;;;;;;;;;;;;;;22.11;49.84;101123.91;5081170;28;4011;-64
2022/11/29 00:57:29;;;;;;;;;;;;;;;22.14;49.66;101119.69;5094520;28;4172;-63
2022/11/29 00:59:55;;;;;;;;;;;;;;;22.11;49.94;101123.91;5089963;28;5236;-62
2022/11/29 01:02:21;;;;;;;;;;;;;;;22.12;49.63;101125.38;5091217;28;4329;-65
2022/11/29 01:04:48;;;;;;;;;;;;;;;22.12;49.97;101130.41;5092128;28;4154;-64
2022/11/29 01:07:14;;;;;;;;;;;;;;;22.11;49.99;101126.78;5087298;28;4559;-64
2022/11/29 01:09:41;;;;;;;;;;;;;;;22.12;49.77;101131.13;5090136;28;4184;-64
2022/11/29 01:12:07;;;;;;;;;;;;;;;22.08;49.72;101130.97;5093276;28;3991;-64
2022/11/29 01:14:33;;;;;;;;;;;;;;;22.07;49.82;101122.97;5064851;28;4138;-62
2022/11/29 01:17:00;;;;;;;;;;;;;;;22.08;49.83;101122.34;5091252;28;4193;-64
2022/11/29 01:19:26;;;;;;;;;;;;;;;22.07;49.84;101125.88;5092829;28;6327;-63
2022/11/29 01:21:53;;;;;;;;;;;;;;;22.07;49.98;101123.72;5091580;28;4127;-64
2022/11/29 01:24:21;;;;;;;;;;;;;;;22.05;50.00;101117.84;5098692;28;4121;-64
2022/11/29 01:26:47;;;;;;;;;;;;;;;22.03;50.07;101125.69;5088884;28;3999;-64
2022/11/29 01:29:14;;;;;;;;;;;;;;;22.00;49.92;101124.13;5084796;28;4246;-62
2022/11/29 01:31:40;;;;;;;;;;;;;;;22.02;49.93;101118.44;5090542;28;4314;-63
2022/11/29 01:34:06;;;;;;;;;;;;;;;22.00;50.00;101118.34;5078347;28;5334;-64
2022/11/29 01:36:33;;;;;;;;;;;;;;;22.01;49.98;101126.31;5077582;28;4141;-65
2022/11/29 01:38:59;;;;;;;;;;;;;;;21.98;49.97;101124.75;5079314;28;5333;-64
2022/11/29 01:41:26;;;;;;;;;;;;;;;21.98;49.84;101121.88;5085961;28;4208;-61
2022/11/29 01:43:57;;;;;;;;;;;;;;;21.97;49.73;101126.16;5075848;28;4088;-64
2022/11/29 01:46:23;;;;;;;;;;;;;;;21.97;50.22;101129.06;5080091;28;4627;-64
2022/11/29 01:48:50;;;;;;;;;;;;;;;21.93;49.96;101120.22;5084655;28;4321;-64
2022/11/29 01:51:17;;;;;;;;;;;;;;;21.92;49.81;101118.72;5080706;28;4159;-64
2022/11/29 01:53:43;;;;;;;;;;;;;;;21.91;49.80;101123.75;5086094;28;6297;-64
2022/11/29 01:56:09;;;;;;;;;;;;;;;21.91;49.88;101117.97;5080178;28;4199;-64
2022/11/29 01:58:36;;;;;;;;;;;;;;;21.95;49.38;101123.19;5061647;28;4849;-63
2022/11/29 02:01:02;;;;;;;;;;;;;;;21.90;49.86;101124.41;5078436;28;4123;-65
2022/11/29 02:03:28;;;;;;;;;;;;;;;21.85;49.79;101114.06;5075589;28;4433;-64
2022/11/29 02:05:55;;;;;;;;;;;;;;;21.84;49.88;101113.34;5078289;28;4141;-64
2022/11/29 02:08:23;;;;;;;;;;;;;;;21.88;49.34;101124.31;5058787;28;6539;-63
2022/11/29 02:10:55;;;;;;;;;;;;;;;21.87;49.54;101120.69;5062889;28;4014;-62
2022/11/29 02:13:24;;;;;;;;;;;;;;;21.89;49.70;101120.78;5076574;28;4066;-65
2022/11/29 02:15:59;;;;;;;;;;;;;;;21.90;49.49;101118.66;5059871;28;4052;-64
2022/11/29 02:18:29;;;;;;;;;;;;;;;21.88;49.69;101118.56;5053061;28;4028;-64
2022/11/29 02:21:15;;;;;;;;;;;;;;;21.83;49.42;101125.53;5036966;28;5177;-62
2022/11/29 02:24:01;;;;;;;;;;;;;;;21.82;49.77;101124.03;5072050;28;4167;-63
2022/11/29 02:26:35;;;;;;;;;;;;;;;21.84;49.59;101129.91;5060457;28;5304;-63
2022/11/29 02:29:07;;;;;;;;;;;;;;;21.80;49.92;101132.59;5069774;28;4192;-63
2022/11/29 02:31:43;;;;;;;;;;;;;;;21.79;49.74;101139.78;5076865;28;4319;-64
2022/11/29 02:34:18;;;;;;;;;;;;;;;21.77;49.73;101139.69;5078744;28;4025;-64
2022/11/29 02:36:50;;;;;;;;;;;;;;;21.76;49.34;101133.16;5075051;28;5275;-63
2022/11/29 02:39:35;;;;;;;;;;;;;;;21.73;49.68;101140.97;5066477;28;4848;-62
2022/11/29 02:42:07;;;;;;;;;;;;;;;21.75;49.53;101129.53;5081614;28;4481;-64
2022/11/29 02:44:52;;;;;;;;;;;;;;;21.77;49.72;101131.78;5080870;28;4661;-62
2022/11/29 02:47:26;;;;;;;;;;;;;;;21.77;49.78;101139.69;5078316;28;5221;-64
2022/11/29 02:50:31;;;;;;;;;;;;;;;21.77;49.68;101136.78;5063368;28;4251;-63
2022/11/29 02:52:59;;;;;;;;;;;;;;;21.74;49.53;101136.69;5019628;28;4210;-64
2022/11/29 02:55:32;;;;;;;;;;;;;;;21.74;49.48;101139.59;4996853;28;4122;-65
2022/11/29 02:58:05;;;;;;;;;;;;;;;21.73;49.78;101143.84;5031529;28;4155;-63
2022/11/29 03:00:31;;;;;;;;;;;;;;;21.70;49.50;101145.16;5057666;28;3942;-63
2022/11/29 03:03:03;;;;;;;;;;;;;;;21.72;49.61;101130.84;5066367;28;4076;-64
2022/11/29 03:05:29;;;;;;;;;;;;;;;21.71;49.28;101134.38;5060592;28;4189;-64
2022/11/29 03:08:18;;;;;;;;;;;;;;;21.70;49.93;101135.78;5076306;28;4305;-64
2022/11/29 03:10:54;;;;;;;;;;;;;;;21.70;49.46;101139.41;5046306;28;3950;-62
2022/11/29 03:13:23;;;;;;;;;;;;;;;21.70;49.55;101144.44;5063833;28;4307;-66
2022/11/29 03:15:51;;;;;;;;;;;;;;;21.70;49.57;101147.31;5072636;28;5402;-65
2022/11/29 03:18:27;;;;;;;;;;;;;;;21.71;49.28;101145.91;5065394;28;4150;-65
2022/11/29 03:20:57;;;;;;;;;;;;;;;21.71;49.60;101143.75;5073371;28;5177;-62
2022/11/29 03:23:23;;;;;;;;;;;;;;;21.77;49.70;101154.81;5070691;28;4217;-63
2022/11/29 03:26:03;;;;;;;;;;;;;;;21.79;49.97;101152.03;5080827;28;4142;-64
2022/11/29 03:28:31;;;;;;;;;;;;;;;21.78;49.83;101149.81;5075673;28;4764;-63
2022/11/29 03:30:57;;;;;;;;;;;;;;;21.77;49.48;101157.72;5080334;28;4201;-64
2022/11/29 03:33:29;;;;;;;;;;;;;;;21.80;49.75;101164.31;5083103;28;4136;-64
2022/11/29 03:35:58;;;;;;;;;;;;;;;21.79;49.48;101159.94;5065893;28;4177;-63
2022/11/29 03:38:30;;;;;;;;;;;;;;;21.82;49.72;101164.41;5072324;28;4076;-65
2022/11/29 03:41:03;;;;;;;;;;;;;;;21.82;49.93;101170.16;5086580;28;4112;-64
2022/11/29 03:43:48;;;;;;;;;;;;;;;21.81;49.59;101163.66;5069362;28;3959;-64
2022/11/29 03:46:19;;;;;;;;;;;;;;;21.80;49.92;101170.06;5082895;28;4112;-65
2022/11/29 03:48:50;;;;;;;;;;;;;;;21.83;49.59;101165.88;5062671;28;4228;-64
2022/11/29 03:51:30;;;;;;;;;;;;;;;21.83;49.58;101165.88;5060520;28;4125;-64
2022/11/29 03:53:57;;;;;;;;;;;;;;;21.87;49.85;101163.19;5072501;28;4142;-64
2022/11/29 03:56:27;;;;;;;;;;;;;;;21.87;49.50;101163.19;5061035;28;4162;-65
2022/11/29 03:59:02;;;;;;;;;;;;;;;21.84;49.52;101176.03;5072658;28;4268;-64
2022/11/29 04:01:45;;;;;;;;;;;;;;;21.83;49.67;101169.53;5080696;28;5064;-63
2022/11/29 04:04:23;;;;;;;;;;;;;;;21.89;49.42;101169.78;5080501;28;4133;-64
2022/11/29 04:06:55;;;;;;;;;;;;;;;21.90;49.27;101177.06;5067453;28;4139;-65
2022/11/29 04:09:26;;;;;;;;;;;;;;;21.90;49.61;101170.53;5072077;28;5429;-63
2022/11/29 04:12:11;;;;;;;;;;;;;;;21.93;49.65;101161.31;5066070;28;5583;-64
2022/11/29 04:14:56;;;;;;;;;;;;;;;21.94;49.24;101171.47;5078788;28;4134;-63
2022/11/29 04:17:32;;;;;;;;;;;;;;;21.90;49.57;101162.63;5072235;28;4103;-64
2022/11/29 04:20:04;;;;;;;;;;;;;;;21.94;49.46;101170.72;5065228;28;4211;-64
2022/11/29 04:22:30;;;;;;;;;;;;;;;21.93;49.54;101169.22;5077623;28;4216;-65
2022/11/29 04:25:14;;;;;;;;;;;;;;;21.93;49.51;101172.84;5075753;28;4639;-63
2022/11/29 04:27:58;;;;;;;;;;;;;;;21.93;49.55;101177.88;5064150;28;5274;-64
2022/11/29 04:30:24;;;;;;;;;;;;;;;21.91;49.55;101180.66;5069846;28;5194;-64
2022/11/29 04:33:03;;;;;;;;;;;;;;;21.97;49.18;101175.19;5078421;28;4026;-64
2022/11/29 04:35:47;;;;;;;;;;;;;;;21.98;49.17;101173.78;5072016;28;4204;-65
2022/11/29 04:38:40;;;;;;;;;;;;;;;21.95;49.30;101175.84;5094596;28;5330;-64
2022/11/29 04:41:06;;;;;;;;;;;;;;;21.98;49.46;101176.66;5050357;28;4129;-64
2022/11/29 04:43:41;;;;;;;;;;;;;;;21.94;49.60;101173.59;5077113;28;4173;-60
2022/11/29 04:46:24;;;;;;;;;;;;;;;21.93;49.55;101172.13;5063141;28;4018;-65
2022/11/29 04:49:00;;;;;;;;;;;;;;;21.92;49.41;101182.91;5076809;28;5330;-64
2022/11/29 04:51:44;;;;;;;;;;;;;;;21.95;49.16;101181.59;5084194;28;4873;-65
2022/11/29 04:54:16;;;;;;;;;;;;;;;21.92;49.58;101182.91;5086771;28;4068;-65
2022/11/29 04:56:46;;;;;;;;;;;;;;;21.94;49.66;101182.25;5071814;28;4184;-63
2022/11/29 04:59:14;;;;;;;;;;;;;;;21.95;49.45;101187.38;5073729;28;3877;-64
2022/11/29 05:01:46;;;;;;;;;;;;;;;21.94;49.49;101185.13;5061608;28;4172;-64
2022/11/29 05:04:18;;;;;;;;;;;;;;;21.94;49.54;101188.00;5072540;28;5234;-60
2022/11/29 05:06:48;;;;;;;;;;;;;;;21.92;49.70;101194.44;5062005;28;4136;-64
2022/11/29 05:09:22;;;;;;;;;;;;;;;21.95;49.46;101183.75;5067941;28;4127;-64
2022/11/29 05:11:51;;;;;;;;;;;;;;;21.92;49.44;101193.69;5068977;28;5467;-62
2022/11/29 05:14:22;;;;;;;;;;;;;;;21.95;49.58;101198.16;5071500;28;4001;-64
2022/11/29 05:17:07;;;;;;;;;;;;;;;21.99;49.45;101198.34;5074239;28;4088;-62
2022/11/29 05:19:38;;;;;;;;;;;;;;;21.98;49.43;101202.63;5086986;28;4219;-63
2022/11/29 05:22:09;;;;;;;;;;;;;;;21.99;49.35;101204.13;5061379;28;4243;-63
2022/11/29 05:24:40;;;;;;;;;;;;;;;22.03;49.44;101203.53;5063751;28;4151;-64
2022/11/29 05:27:15;;;;;;;;;;;;;;;22.00;49.33;101205.59;5058435;28;5102;-64
2022/11/29 05:29:44;;;;;;;;;;;;;;;21.98;49.13;101202.63;5075401;28;3959;-63
2022/11/29 05:32:14;;;;;;;;;;;;;;;22.02;49.43;101210.72;5066364;28;4085;-64
2022/11/29 05:34:46;;;;;;;;;;;;;;;22.01;49.08;101212.84;5075068;28;5289;-63
2022/11/29 05:37:31;;;;;;;;;;;;;;;22.00;49.41;101210.63;5059718;28;4240;-64
2022/11/29 05:40:17;;;;;;;;;;;;;;;22.04;49.14;101217.31;5083096;28;4260;-64
2022/11/29 05:42:47;;;;;;;;;;;;;;;22.05;49.33;101218.78;5064523;28;5194;-65
2022/11/29 05:45:19;;;;;;;;;;;;;;;22.06;49.45;101220.28;5060932;28;4138;-61
2022/11/29 05:47:51;;;;;;;;;;;;;;;22.03;49.35;101220.84;5075126;28;4761;-62
2022/11/29 05:50:20;;;;;;;;;;;;;;;22.02;49.52;101231.63;5075610;28;4197;-64
2022/11/29 05:52:57;;;;;;;;;;;;;;;22.05;49.20;101230.31;5062910;28;4017;-65
2022/11/29 05:55:42;;;;;;;;;;;;;;;22.05;49.50;101230.31;5055656;28;4456;-64
2022/11/29 05:58:40;;;;;;;;;;;;;;;22.05;49.25;101236.09;5077827;28;5430;-64
2022/11/29 06:01:13;;;;;;;;;;;;;;;22.06;49.64;101243.38;5053044;28;4180;-65
2022/11/29 06:03:58;;;;;;;;;;;;;;;22.04;49.18;101239.66;5075130;28;4035;-65
2022/11/29 06:06:27;;;;;;;;;;;;;;;21.90;49.54;101242.63;5066699;28;4199;-64
2022/11/29 06:08:54;;;;;;;;;;;;;;;22.10;49.64;101249.28;5065969;28;4089;-64
2022/11/29 06:11:22;;;;;;;;;;;;;;;22.11;49.60;101250.81;5071485;28;4133;-63
2022/11/29 06:13:49;;;;;;;;;;;;;;;22.10;49.68;101251.44;5067177;28;4125;-64
2022/11/29 06:16:28;;;;;;;;;;;;;;;22.11;49.82;101256.56;5066380;28;4147;-62
2022/11/29 06:19:15;;;;;;;;;;;;;;;22.02;49.88;101260.47;5060541;28;5104;-65
2022/11/29 06:21:47;;;;;;;;;;;;;;;22.12;49.92;101258.03;5077782;28;4143;-65
2022/11/29 06:24:34;;;;;;;;;;;;;;;22.15;49.96;101261.75;5052674;28;4199;-64
2022/11/29 06:27:08;;;;;;;;;;;;;;;22.08;50.38;101269.41;5081117;28;5196;-65
2022/11/29 06:29:44;;;;;;;;;;;;;;;22.10;51.22;101266.59;5073738;28;5500;-65
2022/11/29 06:32:26;;;;;;;;;;;;;;;22.10;51.04;101269.47;5085874;28;4176;-65
2022/11/29 06:34:54;;;;;;;;;;;;;;;22.11;51.55;101273.88;5066408;28;4158;-65
2022/11/29 06:37:26;;;;;;;;;;;;;;;22.10;51.66;101271.63;5068403;28;5274;-66
2022/11/29 06:39:53;;;;;;;;;;;;;;;22.11;51.39;101282.53;5078483;28;5160;-66
2022/11/29 06:42:19;;;;;;;;;;;;;;;22.11;51.33;101278.91;5075579;28;5197;-65
2022/11/29 06:44:46;;;;;;;;;;;;;;;22.14;51.68;101284.09;5078599;28;5100;-66
2022/11/29 06:47:16;;;;;;;;;;;;;;;22.14;51.60;101289.88;5066251;28;5406;-65
2022/11/29 06:49:46;;;;;;;;;;;;;;;22.14;51.52;101294.91;5037630;28;5313;-65
2022/11/29 06:52:16;;;;;;;;;;;;;;;22.14;51.53;101292.00;5064406;28;5536;-65
2022/11/29 06:54:46;;;;;;;;;;;;;;;22.15;51.34;101296.38;5062878;28;4397;-65
2022/11/29 06:57:24;;;;;;;;;;;;;;;22.15;51.68;101293.50;5061600;28;4689;-65
2022/11/29 07:00:02;;;;;;;;;;;;;;;21.77;49.45;101298.22;5059660;28;5211;-66
2022/11/29 07:02:47;;;;;;;;;;;;;;;20.14;45.63;101302.91;5083968;28;5340;-65
2022/11/29 07:05:20;;;;;;;;;;;;;;;19.63;44.24;101304.44;5079071;28;4761;-57
2022/11/29 07:07:47;;;;;;;;;;;;;;;19.49;43.02;101312.22;5070122;28;4164;-61
2022/11/29 07:10:15;;;;;;;;;;;;;;;19.61;42.48;101312.94;5072467;28;4677;-59
2022/11/29 07:12:42;;;;;;;;;;;;;;;19.69;41.49;101311.94;5080228;28;4487;-63
2022/11/29 07:15:13;;;;;;;;;;;;;;;19.46;41.13;101311.38;5066519;28;5307;-64
2022/11/29 07:18:08;;;;;;;;;;;;;;;19.28;40.47;101312.44;5074690;28;4178;-65
2022/11/29 07:20:40;;;;;;;;;;;;;;;19.01;40.16;101310.88;5059621;28;4779;-65
2022/11/29 07:23:06;;;;;;;;;;;;;;;18.98;40.16;101317.91;5076578;28;4110;-66
2022/11/29 07:25:42;;;;;;;;;;;;;;;19.96;40.17;101312.00;5072322;28;5210;-58
2022/11/29 07:28:08;;;;;;;;;;;;;;;20.84;39.62;101308.06;5074436;28;4165;-57
2022/11/29 07:30:40;;;;;;;;;;;;;;;21.22;40.04;101319.31;5072594;28;4128;-54
2022/11/29 07:33:22;;;;;;;;;;;;;;;21.43;40.46;101318.22;5062578;28;4178;-56
2022/11/29 07:36:08;;;;;;;;;;;;;;;21.86;40.99;101308.75;5061067;28;4191;-56
2022/11/29 07:38:40;;;;;;;;;;;;;;;21.88;41.66;101314.59;5082657;28;6312;-57
2022/11/29 07:41:17;;;;;;;;;;;;;;;21.90;42.56;101311.81;5081855;28;4432;-56
2022/11/29 07:43:50;;;;;;;;;;;;;;;21.98;42.68;101317.22;5083025;28;5231;-59
2022/11/29 07:46:16;;;;;;;;;;;;;;;21.99;43.38;101313.69;5081771;28;4224;-57
2022/11/29 07:48:43;;;;;;;;;;;;;;;22.04;44.17;101315.38;5086694;28;5161;-59
2022/11/29 07:51:09;;;;;;;;;;;;;;;22.07;43.88;101316.19;5080436;28;5198;-61
2022/11/29 07:53:37;;;;;;;;;;;;;;;22.06;44.25;101324.13;5074426;28;4473;-56
2022/11/29 07:56:03;;;;;;;;;;;;;;;22.10;44.87;101330.06;5066513;28;4226;-56
2022/11/29 07:58:30;;;;;;;;;;;;;;;22.09;45.37;101328.56;5088160;28;4180;-59
2022/11/29 08:00:56;;;;;;;;;;;;;;;22.19;45.30;101322.53;5088589;28;4291;-55
2022/11/29 08:03:22;;;;;;;;;;;;;;;22.27;45.38;101333.75;5080979;28;5439;-54
2022/11/29 08:05:49;;;;;;;;;;;;;;;22.28;45.62;101338.09;5085997;28;4219;-56
2022/11/29 08:08:15;;;;;;;;;;;;;;;22.31;45.68;101331.03;5083268;28;5210;-55
2022/11/29 08:10:41;;;;;;;;;;;;;;;22.32;45.83;101329.63;5084830;28;5816;-56
2022/11/29 08:13:08;;;;;;;;;;;;;;;22.24;46.19;101332.13;5079044;28;5182;-55
2022/11/29 08:15:34;;;;;;;;;;;;;;;22.32;45.97;101339.03;5083213;28;5305;-57
2022/11/29 08:18:01;;;;;;;;;;;;;;;22.38;46.22;101341.47;5080845;28;4174;-55
2022/11/29 08:20:27;;;;;;;;;;;;;;;22.41;46.46;101350.97;5077712;27;5663;-57
2022/11/29 08:22:57;;;;;;;;;;;;;;;22.40;46.01;101343.69;5080114;28;4196;-56
2022/11/29 08:25:24;;;;;;;;;;;;;;;22.19;47.12;101354.25;5077894;28;4120;-55
2022/11/29 08:27:50;;;;;;;;;;;;;;;22.30;46.69;101349.75;5072844;28;4636;-55
2022/11/29 08:30:23;;;;;;;;;;;;;;;22.36;46.61;101352.91;5083252;28;4453;-58
2022/11/29 08:32:49;;;;;;;;;;;;;;;22.42;46.67;101353.19;5084451;28;4251;-55
2022/11/29 08:35:17;;;;;;;;;;;;;;;22.43;45.75;101354.69;5079636;28;4167;-58
2022/11/29 08:37:43;;;;;;;;;;;;;;;22.15;44.38;101354.81;5081407;28;4392;-56
2022/11/29 08:40:10;;;;;;;;;;;;;;;22.08;43.66;101352.28;5079261;28;4018;-58
2022/11/29 08:42:36;;;;;;;;;;;;;;;20.91;39.67;101358.81;5078923;28;5235;-56
2022/11/29 08:45:02;;;;;;;;;;;;;;;19.64;38.75;101366.25;5079804;28;4288;-54
2022/11/29 08:47:35;;;;;;;;;;;;;;;19.37;37.91;101363.22;5078371;28;4147;-55
2022/11/29 08:50:11;;;;;;;;;;;;;;;19.29;37.13;101357.00;5081484;28;4021;-55
2022/11/29 08:55:24;;;;;;;;;;;;;;;18.67;37.37;101364.06;5078983;28;5270;-54
2022/11/29 08:57:50;;;;;;;;;;;;;;;19.92;36.13;101363.53;5079802;28;4186;-65
2022/11/29 09:00:17;;;;;;;;;;;;;;;20.61;36.25;101368.72;5076359;28;4005;-56
2022/11/29 09:02:43;;;;;;;;;;;;;;;20.99;38.46;101370.00;5073496;28;4132;-57
2022/11/29 09:05:10;;;;;;;;;;;;;;;21.22;37.93;101362.50;5070905;28;4178;-57
2022/11/29 09:07:36;;;;;;;;;;;;;;;21.32;37.91;101366.63;5072483;28;4268;-55
2022/11/29 09:10:04;;;;;;;;;;;;;;;21.41;38.79;101367.09;5078381;28;4233;-54
2022/11/29 09:12:31;;;;;;;;;;;;;;;21.47;39.78;101370.28;5079476;28;4710;-56
2022/11/29 09:14:57;;;;;;;;;;;;;;;21.51;40.09;101371.22;5078723;28;5259;-55
2022/11/29 09:17:24;;;;;;;;;;;;;;;21.53;40.29;101379.97;5075612;28;5284;-56
2022/11/29 09:19:50;;;;;;;;;;;;;;;21.56;40.84;101374.31;5079691;28;3998;-54
2022/11/29 09:22:16;;;;;;;;;;;;;;;21.58;41.11;101374.38;5081436;28;5293;-57
2022/11/29 09:24:45;;;;;;;;;;;;;;;21.58;41.80;101369.41;5085829;28;4294;-56
2022/11/29 09:27:11;;;;;;;;;;;;;;;21.57;42.75;101373.66;5092369;28;4163;-54
2022/11/29 09:29:38;;;;;;;;;;;;;;;21.62;43.57;101378.22;5083771;28;4112;-54
2022/11/29 09:32:04;;;;;;;;;;;;;;;21.63;43.71;101381.88;5082182;28;4523;-58
2022/11/29 09:34:31;;;;;;;;;;;;;;;21.62;43.45;101380.34;5075509;28;4235;-56
2022/11/29 09:36:57;;;;;;;;;;;;;;;21.66;44.27;101383.44;5084108;28;5313;-54
2022/11/29 09:39:24;;;;;;;;;;;;;;;21.68;44.94;101372.75;5086329;28;4261;-54
2022/11/29 09:42:01;;;;;;;;;;;;;;;21.66;45.50;101375.53;5087775;28;4415;-54
2022/11/29 09:44:31;;;;;;;;;;;;;;;21.65;45.37;101381.97;5060034;28;4069;-56
2022/11/29 09:47:16;;;;;;;;;;;;;;;21.70;45.23;101381.50;5068150;28;4074;-65
2022/11/29 09:50:01;;;;;;;;;;;;;;;22.02;44.78;101386.63;5081934;28;4486;-66
2022/11/29 09:52:44;;;;;;;;;;;;;;;22.13;44.72;101385.72;5087087;28;4146;-65
2022/11/29 09:55:29;;;;;;;;;;;;;;;22.22;44.56;101381.09;5070030;28;4213;-65
2022/11/29 09:57:56;;;;;;;;;;;;;;;22.27;44.52;101382.78;5087038;28;5242;-65
2022/11/29 10:00:43;;;;;;;;;;;;;;;22.16;44.79;101379.38;5063473;28;4002;-66
2022/11/29 10:03:16;;;;;;;;;;;;;;;22.23;44.96;101376.81;5068960;28;4201;-67
2022/11/29 10:05:43;;;;;;;;;;;;;;;22.28;44.41;101387.16;5089692;28;4869;-65
2022/11/29 10:08:21;;;;;;;;;;;;;;;22.32;44.78;101378.69;5094926;28;4003;-66
2022/11/29 10:10:48;;;;;;;;;;;;;;;22.36;44.56;101387.53;5075669;28;4062;-65
2022/11/29 10:13:15;;;;;;;;;;;;;;;22.39;44.94;101383.34;5051659;28;4652;-65
2022/11/29 10:15:45;;;;;;;;;;;;;;;22.44;44.76;101385.00;5059005;28;5204;-64
2022/11/29 10:18:17;;;;;;;;;;;;;;;22.50;44.62;101388.19;5079271;28;5309;-65
2022/11/29 10:20:52;;;;;;;;;;;;;;;22.56;44.85;101388.47;5040055;27;5615;-65
2022/11/29 10:23:21;;;;;;;;;;;;;;;22.46;45.14;101396.66;5041271;28;4123;-58
2022/11/29 10:25:48;;;;;;;;;;;;;;;22.45;46.10;101397.28;5061335;28;4122;-63
2022/11/29 10:28:14;;;;;;;;;;;;;;;22.24;46.19;101395.59;5053294;28;5446;-62
2022/11/29 10:30:41;;;;;;;;;;;;;;;22.17;46.28;101395.31;5055871;28;5303;-62
2022/11/29 10:33:19;;;;;;;;;;;;;;;22.16;46.48;101390.19;5064696;28;4187;-63
2022/11/29 10:35:46;;;;;;;;;;;;;;;22.18;46.41;101405.44;5062477;28;4320;-60
2022/11/29 10:38:12;;;;;;;;;;;;;;;22.34;46.64;101404.75;5058466;28;5430;-63
2022/11/29 10:40:57;;;;;;;;;;;;;;;22.43;46.21;101406.63;5063326;28;4173;-64
2022/11/29 10:43:24;;;;;;;;;;;;;;;22.49;46.33;101403.25;5047272;28;4174;-62
2022/11/29 10:45:54;;;;;;;;;;;;;;;22.50;46.51;101399.72;5066161;28;4108;-63
2022/11/29 10:48:21;;;;;;;;;;;;;;;22.49;46.24;101398.22;5062395;28;4104;-64
2022/11/29 10:50:48;;;;;;;;;;;;;;;22.41;46.64;101397.88;5066447;28;4356;-64
2022/11/29 10:53:16;;;;;;;;;;;;;;;22.50;46.76;101399.72;5063224;28;4135;-63
2022/11/29 10:55:49;;;;;;;;;;;;;;;22.54;46.65;101388.38;5058983;28;5131;-64
2022/11/29 10:58:18;;;;;;;;;;;;;;;22.55;46.68;101398.50;5050398;28;6401;-64
2022/11/29 11:00:55;;;;;;;;;;;;;;;22.54;46.64;101396.28;5048924;28;4161;-64
2022/11/29 11:03:26;;;;;;;;;;;;;;;22.53;46.76;101404.19;5046934;28;5199;-64
2022/11/29 11:05:58;;;;;;;;;;;;;;;22.54;46.63;101399.94;5050743;28;5523;-63
2022/11/29 11:08:25;;;;;;;;;;;;;;;22.54;46.59;101405.69;5042350;28;4315;-64
2022/11/29 11:10:53;;;;;;;;;;;;;;;22.55;46.50;101395.63;5035765;28;5216;-64
2022/11/29 11:13:27;;;;;;;;;;;;;;;22.47;46.69;101406.06;5054395;28;4021;-65
2022/11/29 11:15:58;;;;;;;;;;;;;;;22.50;46.71;101407.66;5048768;28;5232;-63
2022/11/29 11:18:25;;;;;;;;;;;;;;;22.33;47.05;101400.38;5052012;28;4164;-64
2022/11/29 11:20:52;;;;;;;;;;;;;;;22.40;47.34;101407.91;5060495;28;3998;-61
2022/11/29 11:23:25;;;;;;;;;;;;;;;22.49;47.19;101403.25;5033810;28;5377;-60
2022/11/29 11:25:56;;;;;;;;;;;;;;;22.59;47.33;101401.59;5053917;28;5592;-55
2022/11/29 11:28:25;;;;;;;;;;;;;;;22.66;46.53;101404.78;5047175;28;5066;-57
2022/11/29 11:31:02;;;;;;;;;;;;;;;22.71;46.42;101403.53;5058116;28;4267;-63
2022/11/29 11:33:30;;;;;;;;;;;;;;;22.67;46.58;101404.09;5032515;28;4993;-60
2022/11/29 11:36:12;;;;;;;;;;;;;;;22.70;46.15;101411.47;5033834;28;4255;-60
2022/11/29 11:38:51;;;;;;;;;;;;;;;22.77;46.22;101410.34;5042997;28;5342;-60
2022/11/29 11:41:19;;;;;;;;;;;;;;;22.45;46.96;101409.59;5041552;28;4177;-64
2022/11/29 11:43:53;;;;;;;;;;;;;;;21.15;44.64;101413.28;5034733;28;4175;-62
2022/11/29 11:46:20;;;;;;;;;;;;;;;21.82;43.90;101404.41;5038043;28;4052;-63
2022/11/29 11:48:46;;;;;;;;;;;;;;;22.23;44.91;101412.19;5037605;28;5447;-67
2022/11/29 11:51:20;;;;;;;;;;;;;;;22.18;45.19;101411.22;5041836;28;4073;-60
2022/11/29 11:53:48;;;;;;;;;;;;;;;22.22;46.46;101404.94;5024444;28;4211;-62
2022/11/29 11:56:14;;;;;;;;;;;;;;;21.26;42.69;101414.56;5038816;28;4021;-64
2022/11/29 11:58:45;;;;;;;;;;;;;;;19.73;40.54;101416.34;5033412;28;4175;-63
2022/11/29 12:01:13;;;;;;;;;;;;;;;19.19;39.77;101409.56;5037317;28;5189;-63
2022/11/29 12:03:39;;;;;;;;;;;;;;;19.73;39.19;101404.09;5038947;28;4171;-61
2022/11/29 12:06:24;;;;;;;;;;;;;;;20.69;39.31;101409.44;5039010;28;4109;-59
2022/11/29 12:08:55;;;;;;;;;;;;;;;21.47;39.49;101413.50;5043341;28;4118;-59
2022/11/29 12:11:21;;;;;;;;;;;;;;;21.86;40.09;101413.28;5031029;28;5121;-59
2022/11/29 12:13:51;;;;;;;;;;;;;;;22.06;40.21;101415.63;5034502;28;3953;-61
2022/11/29 12:16:29;;;;;;;;;;;;;;;22.16;40.53;101408.22;5044614;28;4004;-63
2022/11/29 12:18:57;;;;;;;;;;;;;;;22.22;42.24;101418.59;5035028;28;3987;-62
2022/11/29 12:21:24;;;;;;;;;;;;;;;22.24;42.08;101424.44;5043767;28;4162;-62
2022/11/29 12:23:59;;;;;;;;;;;;;;;22.27;42.27;101426.81;5038692;28;4076;-63
2022/11/29 12:26:25;;;;;;;;;;;;;;;22.32;42.37;101427.72;5037250;28;4184;-60
2022/11/29 12:29:12;;;;;;;;;;;;;;;22.31;42.44;101429.13;5039204;28;4330;-58
2022/11/29 12:32:11;;;;;;;;;;;;;;;22.24;43.26;101433.09;5045110;28;5466;-59
2022/11/29 12:34:41;;;;;;;;;;;;;;;22.25;43.80;101425.97;5021161;28;4032;-59
2022/11/29 12:37:25;;;;;;;;;;;;;;;22.27;44.26;101431.84;5045527;28;4199;-57
2022/11/29 12:39:58;;;;;;;;;;;;;;;22.23;44.35;101438.13;5037953;28;5180;-60
2022/11/29 12:42:30;;;;;;;;;;;;;;;22.35;44.70;101440.84;5043322;28;4211;-62
2022/11/29 12:45:10;;;;;;;;;;;;;;;22.46;44.62;101445.72;5037581;28;5632;-59
2022/11/29 12:47:36;;;;;;;;;;;;;;;22.47;44.40;101437.78;5041119;28;4043;-57
2022/11/29 12:50:22;;;;;;;;;;;;;;;22.46;44.85;101451.47;5034934;28;3992;-56
2022/11/29 12:52:51;;;;;;;;;;;;;;;22.44;44.79;101450.66;5038715;28;5473;-55
2022/11/29 12:55:17;;;;;;;;;;;;;;;22.48;44.91;101456.63;5044474;28;5502;-60
2022/11/29 12:57:48;;;;;;;;;;;;;;;22.41;45.38;101461.34;5038618;28;5220;-60
2022/11/29 13:00:15;;;;;;;;;;;;;;;22.40;46.40;101459.09;5045639;28;5337;-63
2022/11/29 13:02:46;;;;;;;;;;;;;;;22.32;46.37;101459.47;5034465;28;4145;-64
2022/11/29 13:05:24;;;;;;;;;;;;;;;22.30;46.34;101459.38;5042147;28;4215;-61
2022/11/29 13:07:57;;;;;;;;;;;;;;;22.42;46.11;101464.97;5028452;28;5176;-61
2022/11/29 13:10:38;;;;;;;;;;;;;;;22.40;45.92;101465.63;5027813;28;4167;-59
2022/11/29 13:13:14;;;;;;;;;;;;;;;22.46;45.84;101465.91;5039315;28;4163;-59